McAlester, OK (74501)

6:33 PM CDT on April 19, 2015 (GMT -0500)
McAlester Regional | | Change Station
CLOSE
Current Station
Airport
Location: McAlester,
Elevation: 768 ft
Nearby Weather Stations

Elev 768 ft 34.88 °N, 95.78 °W | Updated 40 minutes ago

Partly Cloudy
Partly Cloudy
67 °F
Feels Like 67 °F
N
16
Wind Variable Wind from NNW

Today
High -- | Low -- °F
--% Chance of Precip.
Yesterday
High -- | Low -- °F
Precip. -- in
6:46 AM 7:58 PM
New Moon, 2% visible
Pressure 29.70 in
Visibility 10.0 miles
Clouds Few 9500 ft
Dew Point 52 °F
Humidity 59%
Rainfall 0.04 in
Snow Depth Not available.
UV 2 out of 12
Pollen 9.60 out of 12
Air Quality Not available.
Flu Activity Regional
METAR KMLC 192253Z AUTO 33014KT 10SM FEW095 19/11 A2971 RMK AO2 PK WND 32027/2210 LTG DSNT NE-S RAB2154E31 SLP056 P0003 T01940111

More Conditions Fewer Conditions

Pressure 29.70 in
Visibility 10.0 miles
Clouds Few 9500 ft
Dew Point 52 °F
Humidity 59%
Rainfall 0.04 in
Snow Depth Not available.
UV 2 out of 12
Pollen 9.60 out of 12
Air Quality Not available.
Flu Activity Regional
METAR KMLC 192253Z AUTO 33014KT 10SM FEW095 19/11 A2971 RMK AO2 PK WND 32027/2210 LTG DSNT NE-S RAB2154E31 SLP056 P0003 T01940111

More Conditions Fewer Conditions

Nowcast | as of 6:21 PM CDT on April 19, 2015

At 6:16 PM... National Weather Service Doppler radar continued to indicate scattered showers and thunderstorms continuing over parts of eastern Oklahoma and most numerous across western Arkansas. The showers and storms had ended roughly to the west of Highway 75 in eastern Oklahoma. The precipitation persisted to the east with scattered showers and isolated thunderstorms advancing eastward at 35 to 40 mph. Through 8:00 PM... a cold front will continue to sweep toward the southeast into eastern Oklahoma. Scattered showers and thunderstorms are expected to continue to abate from northwest to southeast. As low pressure rapidly skirts eastward into southwest Missouri... precipitation is expected to become confined to location along and east of Highway 69 in eastern Oklahoma... while continuing across much of western Arkansas. A Severe Thunderstorm Watch remains in effect for parts of eastern Oklahoma and all of western Arkansas until 8:00 PM CDT Sunday.

×

10-Day Weather Forecast

Almanac

Astronomy

Apr. 19, 2015 Rise Set
Actual Time
Civil Twilight
Nautical Twilight
Astronomical Twilight
Moon
Length of Visible Light
Length of Day
Tomorrow will be .
, % of the Moon is Illuminated

Today's Extremes

State Highs State Lows

Community

WunderPhotos

Upload Photos

1,815,036 photos uploaded!

WunderBlogs® & News

Nearby

Air Quality

  Air Quality AQ Index Pollutant
Not available.

Snow Depth

Station Depth Elevation

Earthquake Activity

City Distance Mag. Time & Date
Minimum magnitude displayed is 2.5.

Coastal Water Temperatures

Place Temperature

Stations

Nearby Weather Stations

Station Location Temp. Windchill Dew Point Humidity Wind Precip. Elev Updated Type